^^
Datos históricos de la estación: Murcia-Puente Tocinos
Diario Informe para Octubre 24, 2020 Unidades:  Ambas    Ingés   Métrico
Diario Semanal Mensual Anual
  Máxima: Mínima: Promedio:
Temperatura: 74.8 °F /  23.8 °C 57.4 °F /  14.1 °C 65.1 °F /  18.4 °C
Punto de rocio: 55 °F /  12.8 °C 44.2 °F /  6.8 °C 47.7 °F /  8.7 °C
Humedad: 64% 36% 54%
Velocidad viento: 8.5mph /  13.7km/h - 4mph /  6.4km/h
Racha viento: 19mph /  30.6km/h - -
Viento- - SSO
Presión: 30.3 in /  1025.5 hPa 30.1 in /  1020.3 hPa -
Precipitación: 0 in /  0.0 mm    
 
 
Tabla de datos para Octubre 24, 2020
Hora Temperatura Punto de rocio Presión Viento Velocidad viento Racha viento Humedad Intensidad lluvia(por hora) Nubes
00:04 66.7 °F /  19.3 °C 46.4 °F /  8 °C 30.2in /  1023.6hPa SO 5mph /  8.1km/h 12mph /  19.3km/h 48% 0in /  0.0mm
00:09 66.7 °F /  19.3 °C 46.4 °F /  8 °C 30.2in /  1023.7hPa SO 4.3mph /  6.9km/h 11.5mph /  18.5km/h 48% 0in /  0.0mm
00:14 66.7 °F /  19.3 °C 46.4 °F /  8 °C 30.2in /  1023.7hPa SSO 4.5mph /  7.2km/h 12mph /  19.3km/h 48% 0in /  0.0mm
00:19 66.7 °F /  19.3 °C 46.4 °F /  8 °C 30.2in /  1023.7hPa Sur 5.4mph /  8.7km/h 8.1mph /  13km/h 48% 0in /  0.0mm
00:24 66.6 °F /  19.2 °C 46.2 °F /  7.9 °C 30.2in /  1023.8hPa Sur 5.2mph /  8.4km/h 8mph /  12.9km/h 48% 0in /  0.0mm
00:29 66.4 °F /  19.1 °C 46 °F /  7.8 °C 30.2in /  1023.8hPa Sur 4.3mph /  6.9km/h 8.1mph /  13km/h 48% 0in /  0.0mm
00:34 66.2 °F /  19 °C 46.2 °F /  7.9 °C 30.2in /  1023.8hPa Sur 4.3mph /  6.9km/h 8mph /  12.9km/h 48.4% 0in /  0.0mm
00:39 66 °F /  18.9 °C 46.2 °F /  7.9 °C 30.2in /  1023.8hPa SSO 4.3mph /  6.9km/h 7mph /  11.3km/h 49% 0in /  0.0mm
00:44 65.8 °F /  18.8 °C 46 °F /  7.8 °C 30.2in /  1023.8hPa SO 4.2mph /  6.8km/h 6.2mph /  10km/h 49% 0in /  0.0mm
00:49 65.8 °F /  18.8 °C 46 °F /  7.8 °C 30.2in /  1023.8hPa SO 3.6mph /  5.8km/h 6mph /  9.7km/h 49% 0in /  0.0mm
00:54 65.7 °F /  18.7 °C 46 °F /  7.8 °C 30.2in /  1023.8hPa SSO 3.8mph /  6.1km/h 18.5mph /  29.8km/h 49.1% 0in /  0.0mm
00:59 65.8 °F /  18.8 °C 46.2 °F /  7.9 °C 30.2in /  1023.8hPa SSO 4.7mph /  7.6km/h 19mph /  30.6km/h 49% 0in /  0.0mm
01:04 65.8 °F /  18.8 °C 46 °F /  7.8 °C 30.2in /  1023.8hPa SSO 4.8mph /  7.7km/h 9.2mph /  14.8km/h 49% 0in /  0.0mm
01:09 65.7 °F /  18.7 °C 46 °F /  7.8 °C 30.2in /  1023.8hPa SO 5.4mph /  8.7km/h 9mph /  14.5km/h 49% 0in /  0.0mm
01:14 65.5 °F /  18.6 °C 46.2 °F /  7.9 °C 30.2in /  1023.8hPa Sur 5.4mph /  8.7km/h 5.4mph /  8.7km/h 50% 0in /  0.0mm
01:19 65.3 °F /  18.5 °C 46 °F /  7.8 °C 30.2in /  1023.8hPa Sur 4mph /  6.5km/h 5.4mph /  8.7km/h 50% 0in /  0.0mm
01:24 64.9 °F /  18.3 °C 46 °F /  7.8 °C 30.2in /  1023.8hPa Sur 4mph /  6.5km/h 6.2mph /  10km/h 50.3% 0in /  0.0mm
01:29 64.6 °F /  18.1 °C 46 °F /  7.8 °C 30.2in /  1023.8hPa SSE 3.6mph /  5.8km/h 6.9mph /  11.1km/h 51% 0in /  0.0mm
01:34 64 °F /  17.8 °C 46 °F /  7.8 °C 30.2in /  1023.8hPa SSE 3.6mph /  5.8km/h 5.8mph /  9.3km/h 51.9% 0in /  0.0mm
01:39 63.9 °F /  17.7 °C 45.9 °F /  7.7 °C 30.2in /  1023.8hPa SSE 4mph /  6.4km/h 5.8mph /  9.3km/h 52% 0in /  0.0mm
01:44 63.7 °F /  17.6 °C 46 °F /  7.8 °C 30.2in /  1023.8hPa Sur 4mph /  6.5km/h 6mph /  9.7km/h 52.7% 0in /  0.0mm
01:49 63.3 °F /  17.4 °C 46 °F /  7.8 °C 30.2in /  1023.8hPa Sur 3.7mph /  5.9km/h 6.9mph /  11.1km/h 53% 0in /  0.0mm
01:54 63.3 °F /  17.4 °C 45.9 °F /  7.7 °C 30.2in /  1023.9hPa SSE 3.6mph /  5.8km/h 7mph /  11.3km/h 53% 0in /  0.0mm
01:59 63.1 °F /  17.3 °C 45.9 °F /  7.7 °C 30.2in /  1023.9hPa SSE 4mph /  6.4km/h 6.9mph /  11.1km/h 53% 0in /  0.0mm
02:04 63.1 °F /  17.3 °C 45.7 °F /  7.6 °C 30.2in /  1023.9hPa SSE 4mph /  6.5km/h 7mph /  11.3km/h 53% 0in /  0.0mm
02:09 63 °F /  17.2 °C 46 °F /  7.8 °C 30.2in /  1023.9hPa Sur 4mph /  6.5km/h 6.2mph /  10km/h 54% 0in /  0.0mm
02:14 63 °F /  17.2 °C 45.9 °F /  7.7 °C 30.2in /  1023.8hPa OSO 4mph /  6.5km/h 6mph /  9.7km/h 54% 0in /  0.0mm
02:19 62.6 °F /  17 °C 46 °F /  7.8 °C 30.2in /  1023.8hPa SO 4mph /  6.5km/h 6mph /  9.7km/h 54.7% 0in /  0.0mm
02:24 62.2 °F /  16.8 °C 46 °F /  7.8 °C 30.2in /  1023.8hPa OSO 4mph /  6.5km/h 5mph /  8km/h 55.4% 0in /  0.0mm
02:29 61.9 °F /  16.6 °C 46.2 °F /  7.9 °C 30.2in /  1023.8hPa OSO 2.5mph /  4.1km/h 5mph /  8km/h 56.3% 0in /  0.0mm
02:34 61.5 °F /  16.4 °C 46 °F /  7.8 °C 30.2in /  1023.8hPa OSO 2.4mph /  3.9km/h 5.2mph /  8.4km/h 57% 0in /  0.0mm
02:39 61.3 °F /  16.3 °C 46.4 °F /  8 °C 30.2in /  1023.8hPa SSO 2.4mph /  3.9km/h 6.2mph /  10km/h 57.8% 0in /  0.0mm
02:44 61.2 °F /  16.2 °C 46.4 °F /  8 °C 30.2in /  1023.8hPa SO 2.4mph /  3.9km/h 6.2mph /  10km/h 58% 0in /  0.0mm
02:49 61.2 °F /  16.2 °C 46.4 °F /  8 °C 30.2in /  1023.8hPa OSO 4.3mph /  6.9km/h 6mph /  9.7km/h 58% 0in /  0.0mm
02:54 61 °F /  16.1 °C 46.2 °F /  7.9 °C 30.2in /  1023.8hPa Oeste 4.3mph /  6.9km/h 5mph /  8km/h 58.2% 0in /  0.0mm
02:59 60.6 °F /  15.9 °C 46.2 °F /  7.9 °C 30.2in /  1023.8hPa Oeste 3mph /  4.8km/h 5mph /  8km/h 59% 0in /  0.0mm
03:04 60.4 °F /  15.8 °C 46.4 °F /  8 °C 30.2in /  1023.8hPa SO 2.9mph /  4.7km/h 5mph /  8km/h 59.8% 0in /  0.0mm
03:09 60.4 °F /  15.8 °C 46.4 °F /  8 °C 30.2in /  1023.9hPa SSO 2.9mph /  4.7km/h 5mph /  8km/h 59.6% 0in /  0.0mm
03:14 60.6 °F /  15.9 °C 46.2 °F /  7.9 °C 30.2in /  1023.9hPa Sur 2.9mph /  4.7km/h 5.9mph /  9.5km/h 59% 0in /  0.0mm
03:19 61 °F /  16.1 °C 46.4 °F /  8 °C 30.2in /  1023.9hPa ONO 3.1mph /  5km/h 6mph /  9.7km/h 59% 0in /  0.0mm
03:24 60.6 °F /  15.9 °C 46.2 °F /  7.9 °C 30.2in /  1023.9hPa SO 3.1mph /  5km/h 6mph /  9.7km/h 59% 0in /  0.0mm
03:29 60.6 °F /  15.9 °C 46.2 °F /  7.9 °C 30.2in /  1023.9hPa SSO 2.9mph /  4.7km/h 5.2mph /  8.4km/h 59% 0in /  0.0mm
03:34 60.8 °F /  16 °C 46.4 °F /  8 °C 30.2in /  1023.9hPa SSO 2.9mph /  4.7km/h 5mph /  8km/h 59% 0in /  0.0mm
03:39 60.6 °F /  15.9 °C 46.2 °F /  7.9 °C 30.2in /  1023.9hPa OSO 3.1mph /  5km/h 5mph /  8km/h 58.9% 0in /  0.0mm
03:44 60.4 °F /  15.8 °C 46 °F /  7.8 °C 30.2in /  1023.9hPa Oeste 3.1mph /  5km/h 5mph /  8km/h 58.9% 0in /  0.0mm
03:49 60.3 °F /  15.7 °C 46 °F /  7.8 °C 30.2in /  1023.9hPa Oeste 2.4mph /  3.9km/h 5mph /  8km/h 59.6% 0in /  0.0mm
03:54 59.9 °F /  15.5 °C 45.9 °F /  7.7 °C 30.2in /  1023.9hPa Oeste 2.4mph /  3.9km/h 5mph /  8km/h 60% 0in /  0.0mm
03:59 59.5 °F /  15.3 °C 45.9 °F /  7.7 °C 30.2in /  1023.8hPa OSO 2.4mph /  3.9km/h 5mph /  8km/h 60.3% 0in /  0.0mm
04:04 59.4 °F /  15.2 °C 45.9 °F /  7.7 °C 30.2in /  1023.8hPa OSO 2.4mph /  3.9km/h 4mph /  6.4km/h 60.6% 0in /  0.0mm
04:09 59.4 °F /  15.2 °C 45.9 °F /  7.7 °C 30.2in /  1023.8hPa OSO 2.1mph /  3.3km/h 4mph /  6.4km/h 60.9% 0in /  0.0mm
04:14 59.4 °F /  15.2 °C 45.9 °F /  7.7 °C 30.2in /  1023.7hPa OSO 2mph /  3.2km/h 3.5mph /  5.6km/h 61% 0in /  0.0mm
04:19 59.4 °F /  15.2 °C 45.9 °F /  7.7 °C 30.2in /  1023.7hPa OSO 1.8mph /  2.9km/h 3mph /  4.8km/h 61% 0in /  0.0mm
04:24 59.2 °F /  15.1 °C 45.7 °F /  7.6 °C 30.2in /  1023.8hPa OSO 1.8mph /  2.9km/h 3.6mph /  5.8km/h 61% 0in /  0.0mm
04:29 59.2 °F /  15.1 °C 45.7 °F /  7.6 °C 30.2in /  1023.8hPa OSO 2mph /  3.2km/h 4mph /  6.4km/h 61% 0in /  0.0mm
04:34 59.4 °F /  15.2 °C 45.7 °F /  7.6 °C 30.2in /  1023.8hPa OSO 2mph /  3.2km/h 4mph /  6.4km/h 60.6% 0in /  0.0mm
04:39 59.4 °F /  15.2 °C 45.5 °F /  7.5 °C 30.2in /  1023.8hPa OSO 2.4mph /  3.8km/h 3.6mph /  5.8km/h 60% 0in /  0.0mm
04:44 59.4 °F /  15.2 °C 45.5 °F /  7.5 °C 30.2in /  1023.7hPa OSO 2.4mph /  3.9km/h 4mph /  6.4km/h 60.2% 0in /  0.0mm
04:49 59.4 °F /  15.2 °C 45.5 °F /  7.5 °C 30.2in /  1023.7hPa SSO 2.4mph /  3.9km/h 4.6mph /  7.4km/h 60.2% 0in /  0.0mm
04:54 59.2 °F /  15.1 °C 45.7 °F /  7.6 °C 30.2in /  1023.7hPa SSO 2.4mph /  3.9km/h 4.6mph /  7.4km/h 60.8% 0in /  0.0mm
04:59 59.2 °F /  15.1 °C 45.7 °F /  7.6 °C 30.2in /  1023.7hPa SSO 2mph /  3.2km/h 5mph /  8km/h 61% 0in /  0.0mm
05:04 59 °F /  15 °C 45.5 °F /  7.5 °C 30.2in /  1023.7hPa SSO 2mph /  3.2km/h 5mph /  8km/h 61% 0in /  0.0mm
05:09 58.8 °F /  14.9 °C 45.5 °F /  7.5 °C 30.2in /  1023.7hPa SSO 2.4mph /  3.8km/h 5mph /  8km/h 61% 0in /  0.0mm
05:14 58.6 °F /  14.8 °C 45.3 °F /  7.4 °C 30.2in /  1023.7hPa SSO 2.4mph /  3.9km/h 5.4mph /  8.7km/h 61% 0in /  0.0mm
05:19 58.6 °F /  14.8 °C 45.1 °F /  7.3 °C 30.2in /  1023.7hPa SSO 2.9mph /  4.6km/h 6mph /  9.7km/h 61% 0in /  0.0mm
05:24 58.6 °F /  14.8 °C 45.1 °F /  7.3 °C 30.2in /  1023.8hPa SO 2.9mph /  4.7km/h 6mph /  9.7km/h 61% 0in /  0.0mm
05:29 58.5 °F /  14.7 °C 45.1 °F /  7.3 °C 30.2in /  1023.8hPa SSO 3.6mph /  5.8km/h 6mph /  9.7km/h 61% 0in /  0.0mm
05:34 58.5 °F /  14.7 °C 44.6 °F /  7 °C 30.2in /  1023.8hPa SSO 3.6mph /  5.8km/h 5mph /  8km/h 60% 0in /  0.0mm
05:39 58.6 °F /  14.8 °C 44.8 °F /  7.1 °C 30.2in /  1023.9hPa Sur 2.9mph /  4.7km/h 5mph /  8km/h 60% 0in /  0.0mm
05:44 58.6 °F /  14.8 °C 44.8 °F /  7.1 °C 30.2in /  1023.9hPa Sur 2.9mph /  4.7km/h 5mph /  8km/h 60% 0in /  0.0mm
05:49 58.6 °F /  14.8 °C 44.8 °F /  7.1 °C 30.2in /  1023.9hPa Sur 2.9mph /  4.7km/h 5.2mph /  8.4km/h 60% 0in /  0.0mm
05:54 58.6 °F /  14.8 °C 44.8 °F /  7.1 °C 30.2in /  1023.9hPa SSO 2.9mph /  4.7km/h 5.9mph /  9.5km/h 60% 0in /  0.0mm
05:59 58.8 °F /  14.9 °C 44.8 °F /  7.1 °C 30.2in /  1023.9hPa Sur 3.6mph /  5.8km/h 6mph /  9.7km/h 59.7% 0in /  0.0mm
06:04 58.8 °F /  14.9 °C 45 °F /  7.2 °C 30.2in /  1023.9hPa SSO 3.6mph /  5.8km/h 6mph /  9.7km/h 60% 0in /  0.0mm
06:09 58.6 °F /  14.8 °C 44.8 °F /  7.1 °C 30.2in /  1024.0hPa SSO 3.6mph /  5.8km/h 6.2mph /  10km/h 60% 0in /  0.0mm
06:14 58.5 °F /  14.7 °C 44.6 °F /  7 °C 30.2in /  1024.0hPa SSO 3.6mph /  5.8km/h 6mph /  9.7km/h 60% 0in /  0.0mm
06:19 58.5 °F /  14.7 °C 44.6 °F /  7 °C 30.2in /  1024.0hPa SSO 3.6mph /  5.8km/h 5.2mph /  8.4km/h 60% 0in /  0.0mm
06:24 58.5 °F /  14.7 °C 44.6 °F /  7 °C 30.2in /  1024.2hPa SSO 3.6mph /  5.8km/h 5mph /  8km/h 60% 0in /  0.0mm
06:29 58.5 °F /  14.7 °C 44.6 °F /  7 °C 30.2in /  1024.2hPa SSO 3.1mph /  5km/h 5.8mph /  9.3km/h 60% 0in /  0.0mm
06:34 58.3 °F /  14.6 °C 44.4 °F /  6.9 °C 30.2in /  1024.2hPa SSO 3.1mph /  5km/h 7.6mph /  12.2km/h 60% 0in /  0.0mm
06:39 58.3 °F /  14.6 °C 44.4 °F /  6.9 °C 30.2in /  1024.2hPa SO 3.9mph /  6.3km/h 8.1mph /  13km/h 60% 0in /  0.0mm
06:44 58.3 °F /  14.6 °C 44.4 °F /  6.9 °C 30.2in /  1024.2hPa SO 4mph /  6.5km/h 8mph /  12.9km/h 60% 0in /  0.0mm
06:49 57.9 °F /  14.4 °C 44.2 °F /  6.8 °C 30.2in /  1024.2hPa SO 4.7mph /  7.5km/h 8.1mph /  13km/h 60.4% 0in /  0.0mm
06:54 57.9 °F /  14.4 °C 44.4 °F /  6.9 °C 30.3in /  1024.3hPa SSO 4.7mph /  7.6km/h 8mph /  12.9km/h 61% 0in /  0.0mm
06:59 57.9 °F /  14.4 °C 44.4 °F /  6.9 °C 30.3in /  1024.3hPa SSO 3.6mph /  5.8km/h 6.2mph /  10km/h 61% 0in /  0.0mm
07:04 57.9 °F /  14.4 °C 44.4 °F /  6.9 °C 30.3in /  1024.3hPa SSO 3.6mph /  5.8km/h 6.9mph /  11.1km/h 61% 0in /  0.0mm
07:09 57.9 °F /  14.4 °C 44.4 °F /  6.9 °C 30.3in /  1024.3hPa SO 4mph /  6.4km/h 7mph /  11.3km/h 61% 0in /  0.0mm
07:14 57.9 °F /  14.4 °C 44.2 °F /  6.8 °C 30.3in /  1024.3hPa SO 4mph /  6.5km/h 7mph /  11.3km/h 60.2% 0in /  0.0mm
07:19 57.9 °F /  14.4 °C 44.4 °F /  6.9 °C 30.3in /  1024.3hPa SO 4mph /  6.5km/h 6mph /  9.7km/h 61% 0in /  0.0mm
07:24 57.7 °F /  14.3 °C 44.4 °F /  6.9 °C 30.3in /  1024.3hPa SO 4mph /  6.5km/h 5mph /  8km/h 61% 0in /  0.0mm
07:29 57.7 °F /  14.3 °C 44.4 °F /  6.9 °C 30.3in /  1024.3hPa SO 3mph /  4.8km/h 5.2mph /  8.4km/h 61% 0in /  0.0mm
07:34 57.7 °F /  14.3 °C 44.4 °F /  6.9 °C 30.3in /  1024.3hPa SSO 2.9mph /  4.7km/h 5mph /  8km/h 61% 0in /  0.0mm
07:39 57.7 °F /  14.3 °C 44.4 °F /  6.9 °C 30.3in /  1024.3hPa Sur 2.9mph /  4.7km/h 5mph /  8km/h 61% 0in /  0.0mm
07:44 57.7 °F /  14.3 °C 44.4 °F /  6.9 °C 30.3in /  1024.3hPa Sur 2.9mph /  4.7km/h 6.2mph /  10km/h 61% 0in /  0.0mm
07:49 57.7 °F /  14.3 °C 44.8 °F /  7.1 °C 30.3in /  1024.3hPa Sur 3.6mph /  5.8km/h 6mph /  9.7km/h 61.9% 0in /  0.0mm
07:54 57.7 °F /  14.3 °C 44.8 °F /  7.1 °C 30.3in /  1024.3hPa Sur 3.6mph /  5.8km/h 6.9mph /  11.1km/h 62% 0in /  0.0mm
07:59 57.7 °F /  14.3 °C 44.8 °F /  7.1 °C 30.3in /  1024.3hPa SSO 3.6mph /  5.8km/h 7mph /  11.3km/h 62% 0in /  0.0mm
08:04 57.7 °F /  14.3 °C 44.8 °F /  7.1 °C 30.3in /  1024.3hPa SSO 3.6mph /  5.8km/h 6mph /  9.7km/h 62% 0in /  0.0mm
08:09 57.7 °F /  14.3 °C 44.8 °F /  7.1 °C 30.3in /  1024.4hPa SO 3.1mph /  5km/h 6mph /  9.7km/h 62% 0in /  0.0mm
08:14 57.7 °F /  14.3 °C 44.8 °F /  7.1 °C 30.3in /  1024.4hPa SO 3.1mph /  5km/h 6mph /  9.7km/h 62% 0in /  0.0mm
08:19 57.6 °F /  14.2 °C 45 °F /  7.2 °C 30.3in /  1024.4hPa OSO 2.4mph /  3.9km/h 5mph /  8km/h 62.6% 0in /  0.0mm
08:24 57.6 °F /  14.2 °C 45.1 °F /  7.3 °C 30.3in /  1024.4hPa OSO 2.4mph /  3.9km/h 5mph /  8km/h 63% 0in /  0.0mm
08:29 57.4 °F /  14.1 °C 45 °F /  7.2 °C 30.3in /  1024.4hPa OSO 2.4mph /  3.9km/h 4mph /  6.4km/h 63% 0in /  0.0mm
08:34 57.4 °F /  14.1 °C 45 °F /  7.2 °C 30.3in /  1024.4hPa SSO 2.4mph /  3.9km/h 4mph /  6.4km/h 63% 0in /  0.0mm
08:39 57.4 °F /  14.1 °C 45 °F /  7.2 °C 30.3in /  1024.5hPa SSO 2mph /  3.2km/h 4mph /  6.4km/h 63% 0in /  0.0mm
08:44 57.4 °F /  14.1 °C 45 °F /  7.2 °C 30.3in /  1024.5hPa SSO 2mph /  3.2km/h 3.6mph /  5.8km/h 63% 0in /  0.0mm
08:49 57.4 °F /  14.1 °C 45.3 °F /  7.4 °C 30.3in /  1024.5hPa SO 1.8mph /  2.9km/h 4mph /  6.4km/h 64% 0in /  0.0mm
08:54 57.4 °F /  14.1 °C 45.3 °F /  7.4 °C 30.3in /  1024.5hPa SO 1.8mph /  2.9km/h 4.6mph /  7.4km/h 64% 0in /  0.0mm
08:59 57.6 °F /  14.2 °C 45.3 °F /  7.4 °C 30.3in /  1024.5hPa SSO 2.4mph /  3.8km/h 5.9mph /  9.5km/h 63.6% 0in /  0.0mm
09:04 57.6 °F /  14.2 °C 45.3 °F /  7.4 °C 30.3in /  1024.5hPa SO 2.4mph /  3.9km/h 6mph /  9.7km/h 63.4% 0in /  0.0mm
09:09 57.7 °F /  14.3 °C 45.1 °F /  7.3 °C 30.3in /  1024.6hPa SO 4mph /  6.4km/h 6mph /  9.7km/h 63% 0in /  0.0mm
09:14 57.9 °F /  14.4 °C 45.3 °F /  7.4 °C 30.3in /  1024.6hPa SSO 4mph /  6.5km/h 6mph /  9.7km/h 63% 0in /  0.0mm
09:19 58.3 °F /  14.6 °C 45.5 °F /  7.5 °C 30.3in /  1024.6hPa Sur 3.6mph /  5.8km/h 7.4mph /  11.9km/h 62.6% 0in /  0.0mm
09:24 58.5 °F /  14.7 °C 45.5 °F /  7.5 °C 30.3in /  1024.7hPa SSO 3.6mph /  5.8km/h 8.1mph /  13km/h 62% 0in /  0.0mm
09:29 58.6 °F /  14.8 °C 45.7 °F /  7.6 °C 30.3in /  1024.7hPa SSO 4.2mph /  6.8km/h 8.1mph /  13km/h 62% 0in /  0.0mm
09:34 58.8 °F /  14.9 °C 45.5 °F /  7.5 °C 30.3in /  1024.7hPa SO 4.3mph /  6.9km/h 8.1mph /  13km/h 61.5% 0in /  0.0mm
09:39 59.2 °F /  15.1 °C 45.7 °F /  7.6 °C 30.3in /  1024.9hPa SSO 4.7mph /  7.6km/h 8.1mph /  13km/h 61% 0in /  0.0mm
09:44 59.4 °F /  15.2 °C 45.9 °F /  7.7 °C 30.3in /  1024.9hPa SO 4.7mph /  7.6km/h 7mph /  11.3km/h 61% 0in /  0.0mm
09:49 59.5 °F /  15.3 °C 46 °F /  7.8 °C 30.3in /  1024.9hPa SSO 3.7mph /  5.9km/h 9.2mph /  14.8km/h 60.6% 0in /  0.0mm
09:54 59.9 °F /  15.5 °C 45.9 °F /  7.7 °C 30.3in /  1025.1hPa SO 3.6mph /  5.8km/h 9mph /  14.5km/h 60% 0in /  0.0mm
09:59 60.1 °F /  15.6 °C 46 °F /  7.8 °C 30.3in /  1025.1hPa SSO 4.7mph /  7.5km/h 9mph /  14.5km/h 60% 0in /  0.0mm
10:04 60.3 °F /  15.7 °C 46.4 °F /  8 °C 30.3in /  1025.1hPa SSO 4.7mph /  7.6km/h 8.1mph /  13km/h 60% 0in /  0.0mm
10:09 60.4 °F /  15.8 °C 46.2 °F /  7.9 °C 30.3in /  1025.3hPa SSO 3.1mph /  5km/h 8mph /  12.9km/h 59.3% 0in /  0.0mm
10:14 61 °F /  16.1 °C 46.6 °F /  8.1 °C 30.3in /  1025.3hPa SSO 3.1mph /  5km/h 6mph /  9.7km/h 58.9% 0in /  0.0mm
10:19 61.2 °F /  16.2 °C 46.4 °F /  8 °C 30.3in /  1025.3hPa SSO 3.1mph /  5km/h 6.9mph /  11.1km/h 58% 0in /  0.0mm
10:24 61.5 °F /  16.4 °C 46.4 °F /  8 °C 30.3in /  1025.4hPa SSO 3.1mph /  5km/h 10.4mph /  16.7km/h 57.6% 0in /  0.0mm
10:29 61.5 °F /  16.4 °C 46.6 °F /  8.1 °C 30.3in /  1025.4hPa SSO 4.2mph /  6.8km/h 10.7mph /  17.2km/h 58% 0in /  0.0mm
10:34 61.5 °F /  16.4 °C 46.8 °F /  8.2 °C 30.3in /  1025.4hPa SO 4.3mph /  6.9km/h 11mph /  17.7km/h 58% 0in /  0.0mm
10:39 61.9 °F /  16.6 °C 46.9 °F /  8.3 °C 30.3in /  1025.5hPa SSO 5.4mph /  8.7km/h 10mph /  16.1km/h 58% 0in /  0.0mm
10:44 62.1 °F /  16.7 °C 47.1 °F /  8.4 °C 30.3in /  1025.5hPa SSO 5.4mph /  8.7km/h 10.4mph /  16.7km/h 58% 0in /  0.0mm
10:49 62.2 °F /  16.8 °C 47.3 °F /  8.5 °C 30.3in /  1025.5hPa SSO 4.7mph /  7.6km/h 8.1mph /  13km/h 58% 0in /  0.0mm
10:54 62.6 °F /  17 °C 47.3 °F /  8.5 °C 30.3in /  1025.5hPa SSO 4.7mph /  7.6km/h 8.5mph /  13.7km/h 57.5% 0in /  0.0mm
10:59 63 °F /  17.2 °C 47.5 °F /  8.6 °C 30.3in /  1025.5hPa SO 4.3mph /  6.9km/h 9.2mph /  14.8km/h 57.1% 0in /  0.0mm
11:04 63 °F /  17.2 °C 47.7 °F /  8.7 °C 30.3in /  1025.5hPa SO 4.3mph /  6.9km/h 9.2mph /  14.8km/h 57% 0in /  0.0mm
11:09 63.3 °F /  17.4 °C 47.7 °F /  8.7 °C 30.3in /  1025.5hPa SO 4.7mph /  7.6km/h 9.2mph /  14.8km/h 56.7% 0in /  0.0mm
11:14 63.7 °F /  17.6 °C 47.7 °F /  8.7 °C 30.3in /  1025.5hPa OSO 4.7mph /  7.6km/h 9.2mph /  14.8km/h 55.7% 0in /  0.0mm
11:19 64 °F /  17.8 °C 47.8 °F /  8.8 °C 30.3in /  1025.5hPa OSO 5.4mph /  8.7km/h 9mph /  14.5km/h 55.9% 0in /  0.0mm
11:24 64.4 °F /  18 °C 48 °F /  8.9 °C 30.3in /  1025.5hPa OSO 5.4mph /  8.7km/h 8.1mph /  13km/h 55.3% 0in /  0.0mm
11:29 64.9 °F /  18.3 °C 48 °F /  8.9 °C 30.3in /  1025.4hPa SO 4.7mph /  7.6km/h 9.7mph /  15.6km/h 54.2% 0in /  0.0mm
11:34 65.3 °F /  18.5 °C 47.8 °F /  8.8 °C 30.3in /  1025.4hPa SO 4.7mph /  7.6km/h 11.5mph /  18.5km/h 53.2% 0in /  0.0mm
11:39 65.5 °F /  18.6 °C 48 °F /  8.9 °C 30.3in /  1025.4hPa OSO 6.1mph /  9.8km/h 12mph /  19.3km/h 53% 0in /  0.0mm
11:44 65.8 °F /  18.8 °C 48.2 °F /  9 °C 30.3in /  1025.3hPa Oeste 6.2mph /  10km/h 12mph /  19.3km/h 53% 0in /  0.0mm
11:49 66 °F /  18.9 °C 48 °F /  8.9 °C 30.3in /  1025.3hPa OSO 6.2mph /  10km/h 12mph /  19.3km/h 52.4% 0in /  0.0mm
11:54 66.4 °F /  19.1 °C 48.2 °F /  9 °C 30.3in /  1025.3hPa OSO 6.2mph /  10km/h 12mph /  19.3km/h 52% 0in /  0.0mm
11:59 66.6 °F /  19.2 °C 48 °F /  8.9 °C 30.3in /  1025.1hPa SO 6.2mph /  10km/h 12mph /  19.3km/h 51.5% 0in /  0.0mm
12:04 66.7 °F /  19.3 °C 47.8 °F /  8.8 °C 30.3in /  1025.1hPa SO 6.2mph /  10km/h 11.8mph /  19km/h 50.8% 0in /  0.0mm
12:09 66.7 °F /  19.3 °C 47.8 °F /  8.8 °C 30.3in /  1025.1hPa SO 6.2mph /  10km/h 12mph /  19.3km/h 50.5% 0in /  0.0mm
12:14 66.7 °F /  19.3 °C 48 °F /  8.9 °C 30.3in /  1025.0hPa SO 6.2mph /  10km/h 11mph /  17.7km/h 50.9% 0in /  0.0mm
12:19 67.1 °F /  19.5 °C 48 °F /  8.9 °C 30.3in /  1025.0hPa SSO 6.2mph /  10km/h 10.4mph /  16.7km/h 50.4% 0in /  0.0mm
12:24 67.5 °F /  19.7 °C 47.8 °F /  8.8 °C 30.3in /  1025.0hPa SO 6.2mph /  10km/h 10mph /  16.1km/h 49.5% 0in /  0.0mm
12:29 67.5 °F /  19.7 °C 47.7 °F /  8.7 °C 30.3in /  1024.8hPa OSO 5.2mph /  8.4km/h 10.4mph /  16.7km/h 49% 0in /  0.0mm
12:34 67.5 °F /  19.7 °C 47.7 °F /  8.7 °C 30.3in /  1024.8hPa SO 5.2mph /  8.4km/h 10mph /  16.1km/h 49.1% 0in /  0.0mm
12:39 67.8 °F /  19.9 °C 47.8 °F /  8.8 °C 30.3in /  1024.8hPa Sur 4.3mph /  7km/h 11.5mph /  18.5km/h 48.8% 0in /  0.0mm
12:44 68.2 °F /  20.1 °C 47.7 °F /  8.7 °C 30.3in /  1024.6hPa SSO 4.3mph /  6.9km/h 12mph /  19.3km/h 47.9% 0in /  0.0mm
12:49 68.4 °F /  20.2 °C 47.5 °F /  8.6 °C 30.3in /  1024.6hPa SSO 4.7mph /  7.5km/h 9mph /  14.5km/h 47.3% 0in /  0.0mm
12:54 68.4 °F /  20.2 °C 47.5 °F /  8.6 °C 30.3in /  1024.6hPa OSO 4.7mph /  7.6km/h 9.7mph /  15.6km/h 47.1% 0in /  0.0mm
12:59 68.7 °F /  20.4 °C 47.5 °F /  8.6 °C 30.3in /  1024.4hPa SO 4.3mph /  6.9km/h 10mph /  16.1km/h 46.8% 0in /  0.0mm
13:04 69.1 °F /  20.6 °C 47.5 °F /  8.6 °C 30.3in /  1024.4hPa OSO 4.3mph /  6.9km/h 7.4mph /  11.9km/h 46% 0in /  0.0mm
13:09 69.1 °F /  20.6 °C 47.3 °F /  8.5 °C 30.3in /  1024.4hPa Oeste 4mph /  6.5km/h 7mph /  11.3km/h 46% 0in /  0.0mm
13:14 69.3 °F /  20.7 °C 47.7 °F /  8.7 °C 30.2in /  1024.2hPa SSO 4mph /  6.5km/h 7.4mph /  11.9km/h 46.3% 0in /  0.0mm
13:15 69.4 °F /  20.8 °C 47.3 °F /  8.5 °C 30.2in /  1024.2hPa SO 4mph /  6.5km/h 7mph /  11.3km/h 45.2% 0in /  0.0mm
13:24 70 °F /  21.1 °C 47.7 °F /  8.7 °C 30.2in /  1024.2hPa SSE 3.1mph /  5km/h 5mph /  8km/h 45% 0in /  0.0mm
13:29 70.3 °F /  21.3 °C 47.5 °F /  8.6 °C 30.2in /  1023.9hPa OSO 2mph /  3.2km/h 8.1mph /  13km/h 44% 0in /  0.0mm
13:34 70.3 °F /  21.3 °C 46.9 °F /  8.3 °C 30.2in /  1023.9hPa Oeste 2mph /  3.2km/h 11.5mph /  18.5km/h 43.1% 0in /  0.0mm
13:39 70.2 °F /  21.2 °C 47.1 °F /  8.4 °C 30.2in /  1023.9hPa Oeste 4.5mph /  7.3km/h 12mph /  19.3km/h 44% 0in /  0.0mm
13:44 70.3 °F /  21.3 °C 46.9 °F /  8.3 °C 30.2in /  1023.7hPa SO 4.7mph /  7.6km/h 9.2mph /  14.8km/h 43.3% 0in /  0.0mm
13:49 70.5 °F /  21.4 °C 46.6 °F /  8.1 °C 30.2in /  1023.7hPa OSO 4.3mph /  7km/h 10.2mph /  16.4km/h 42.4% 0in /  0.0mm
13:54 70.7 °F /  21.5 °C 46.6 °F /  8.1 °C 30.2in /  1023.7hPa OSO 4.3mph /  6.9km/h 10.4mph /  16.7km/h 42% 0in /  0.0mm
13:59 71.1 °F /  21.7 °C 46.2 °F /  7.9 °C 30.2in /  1023.4hPa Oeste 4.3mph /  6.9km/h 12.7mph /  20.4km/h 41% 0in /  0.0mm
14:04 70.7 °F /  21.5 °C 45.9 °F /  7.7 °C 30.2in /  1023.4hPa Oeste 4.3mph /  6.9km/h 13mph /  20.9km/h 41.1% 0in /  0.0mm
14:09 70.7 °F /  21.5 °C 46.2 °F /  7.9 °C 30.2in /  1023.4hPa Oeste 5.9mph /  9.5km/h 9mph /  14.5km/h 41.6% 0in /  0.0mm
14:14 71.2 °F /  21.8 °C 46.4 °F /  8 °C 30.2in /  1023.0hPa SO 5.9mph /  9.5km/h 8.5mph /  13.7km/h 41.2% 0in /  0.0mm
14:19 71.4 °F /  21.9 °C 46.2 °F /  7.9 °C 30.2in /  1023.0hPa OSO 3.7mph /  6km/h 9.2mph /  14.8km/h 40.7% 0in /  0.0mm
14:24 71.4 °F /  21.9 °C 45.9 °F /  7.7 °C 30.2in /  1023.0hPa ONO 3.6mph /  5.8km/h 9mph /  14.5km/h 40% 0in /  0.0mm
14:29 71.8 °F /  22.1 °C 46.2 °F /  7.9 °C 30.2in /  1022.9hPa NE 3.6mph /  5.8km/h 8.1mph /  13km/h 40% 0in /  0.0mm
14:34 72.3 °F /  22.4 °C 46.2 °F /  7.9 °C 30.2in /  1022.9hPa Oeste 3.6mph /  5.8km/h 9mph /  14.5km/h 39.4% 0in /  0.0mm
14:39 72.3 °F /  22.4 °C 46 °F /  7.8 °C 30.2in /  1022.9hPa SSO 3.1mph /  5km/h 9mph /  14.5km/h 39% 0in /  0.0mm
14:44 72.5 °F /  22.5 °C 45.5 °F /  7.5 °C 30.2in /  1022.6hPa SO 3.1mph /  5km/h 10.4mph /  16.7km/h 38.1% 0in /  0.0mm
14:49 72.7 °F /  22.6 °C 45.7 °F /  7.6 °C 30.2in /  1022.6hPa SSE 4mph /  6.4km/h 10mph /  16.1km/h 38% 0in /  0.0mm
14:54 72.9 °F /  22.7 °C 45.5 °F /  7.5 °C 30.2in /  1022.6hPa SO 4mph /  6.5km/h 12.7mph /  20.4km/h 37.6% 0in /  0.0mm
14:59 72.9 °F /  22.7 °C 45 °F /  7.2 °C 30.2in /  1022.3hPa SSO 4.3mph /  6.9km/h 13mph /  20.9km/h 37% 0in /  0.0mm
15:04 72.7 °F /  22.6 °C 45.1 °F /  7.3 °C 30.2in /  1022.3hPa SSO 4.3mph /  6.9km/h 11.5mph /  18.5km/h 37.2% 0in /  0.0mm
15:09 73 °F /  22.8 °C 45.1 °F /  7.3 °C 30.2in /  1022.3hPa SO 4.7mph /  7.6km/h 10.7mph /  17.2km/h 37% 0in /  0.0mm
15:14 73.2 °F /  22.9 °C 45.1 °F /  7.3 °C 30.2in /  1022.0hPa SSO 4.7mph /  7.6km/h 11.8mph /  19km/h 36.6% 0in /  0.0mm
15:19 73 °F /  22.8 °C 45 °F /  7.2 °C 30.2in /  1022.0hPa SO 6.7mph /  10.8km/h 12mph /  19.3km/h 36.7% 0in /  0.0mm
15:24 73 °F /  22.8 °C 45.1 °F /  7.3 °C 30.2in /  1022.0hPa SO 6.9mph /  11.1km/h 8.1mph /  13km/h 37% 0in /  0.0mm
15:29 73.2 °F /  22.9 °C 45.1 °F /  7.3 °C 30.2in /  1021.7hPa SSE 4.2mph /  6.7km/h 8mph /  12.9km/h 36.7% 0in /  0.0mm
15:34 73.6 °F /  23.1 °C 45.1 °F /  7.3 °C 30.2in /  1021.7hPa OSO 4mph /  6.5km/h 7.4mph /  11.9km/h 36.3% 0in /  0.0mm
15:39 73.9 °F /  23.3 °C 45.3 °F /  7.4 °C 30.2in /  1021.7hPa SO 3.1mph /  5km/h 8.1mph /  13km/h 36% 0in /  0.0mm
15:44 73.9 °F /  23.3 °C 45.3 °F /  7.4 °C 30.2in /  1021.5hPa SE 3.1mph /  5km/h 10.4mph /  16.7km/h 36% 0in /  0.0mm
15:49 73.8 °F /  23.2 °C 45.1 °F /  7.3 °C 30.2in /  1021.5hPa Este 5.3mph /  8.6km/h 10mph /  16.1km/h 36.3% 0in /  0.0mm
15:54 73.6 °F /  23.1 °C 45.3 °F /  7.4 °C 30.2in /  1021.5hPa Este 5.4mph /  8.7km/h 8mph /  12.9km/h 36.5% 0in /  0.0mm
15:59 73.8 °F /  23.2 °C 45.1 °F /  7.3 °C 30.2in /  1021.3hPa ESE 4mph /  6.5km/h 8.1mph /  13km/h 36% 0in /  0.0mm
16:04 73.9 °F /  23.3 °C 45.1 °F /  7.3 °C 30.2in /  1021.3hPa SSE 4mph /  6.5km/h 8mph /  12.9km/h 36% 0in /  0.0mm
16:09 73.9 °F /  23.3 °C 45.5 °F /  7.5 °C 30.2in /  1021.3hPa SSO 3.6mph /  5.8km/h 6mph /  9.7km/h 36% 0in /  0.0mm
16:14 74.5 °F /  23.6 °C 45.9 °F /  7.7 °C 30.2in /  1021.1hPa Este 3.6mph /  5.8km/h 7.4mph /  11.9km/h 36% 0in /  0.0mm
16:19 74.5 °F /  23.6 °C 45.9 °F /  7.7 °C 30.2in /  1021.1hPa SSO 2.9mph /  4.7km/h 8.1mph /  13km/h 36% 0in /  0.0mm
16:24 74.7 °F /  23.7 °C 46.2 °F /  7.9 °C 30.2in /  1021.1hPa SSE 2.9mph /  4.7km/h 8mph /  12.9km/h 36.4% 0in /  0.0mm
16:29 74.8 °F /  23.8 °C 46 °F /  7.8 °C 30.2in /  1020.9hPa SE 3.5mph /  5.7km/h 12.7mph /  20.4km/h 36.1% 0in /  0.0mm
16:34 74.8 °F /  23.8 °C 46 °F /  7.8 °C 30.2in /  1020.9hPa SE 3.6mph /  5.8km/h 13mph /  20.9km/h 36% 0in /  0.0mm
16:39 74.5 °F /  23.6 °C 46.6 °F /  8.1 °C 30.2in /  1020.9hPa SE 6.2mph /  9.9km/h 12mph /  19.3km/h 37.1% 0in /  0.0mm
16:44 74.1 °F /  23.4 °C 46.9 °F /  8.3 °C 30.1in /  1020.8hPa SSE 6.2mph /  10km/h 9mph /  14.5km/h 38% 0in /  0.0mm
16:49 73.9 °F /  23.3 °C 46.6 °F /  8.1 °C 30.1in /  1020.8hPa ESE 5.4mph /  8.7km/h 8mph /  12.9km/h 37.9% 0in /  0.0mm
16:54 73.9 °F /  23.3 °C 46.6 °F /  8.1 °C 30.1in /  1020.8hPa NNE 5.4mph /  8.7km/h 7mph /  11.3km/h 37.7% 0in /  0.0mm
16:59 74.3 °F /  23.5 °C 47.5 °F /  8.6 °C 30.1in /  1020.7hPa ESE 3.3mph /  5.3km/h 9.2mph /  14.8km/h 38.6% 0in /  0.0mm
17:04 74.5 °F /  23.6 °C 46.6 °F /  8.1 °C 30.1in /  1020.7hPa Este 3.1mph /  5km/h 9mph /  14.5km/h 37.2% 0in /  0.0mm
17:09 74.5 °F /  23.6 °C 48.6 °F /  9.2 °C 30.1in /  1020.7hPa SSE 4mph /  6.4km/h 8.5mph /  13.7km/h 40.1% 0in /  0.0mm
17:14 74.5 °F /  23.6 °C 49.5 °F /  9.7 °C 30.1in /  1020.6hPa SE 4mph /  6.5km/h 11.5mph /  18.5km/h 41.3% 0in /  0.0mm
17:19 74.5 °F /  23.6 °C 49.8 °F /  9.9 °C 30.1in /  1020.6hPa SSE 5.8mph /  9.3km/h 12.7mph /  20.4km/h 42.1% 0in /  0.0mm
17:24 73.9 °F /  23.3 °C 50.2 °F /  10.1 °C 30.1in /  1020.7hPa SSE 5.9mph /  9.5km/h 14mph /  22.5km/h 43% 0in /  0.0mm
17:25 73.8 °F /  23.2 °C 50 °F /  10 °C 30.1in /  1020.7hPa SE 5.9mph /  9.5km/h 14mph /  22.5km/h 43% 0in /  0.0mm
17:34 73.8 °F /  23.2 °C 50.5 °F /  10.3 °C 30.1in /  1020.7hPa SE 8.1mph /  13km/h 12mph /  19.3km/h 43.9% 0in /  0.0mm
17:39 73.9 °F /  23.3 °C 50.2 °F /  10.1 °C 30.1in /  1020.7hPa SE 7mph /  11.3km/h 11.5mph /  18.5km/h 43.4% 0in /  0.0mm
17:44 73.9 °F /  23.3 °C 50 °F /  10 °C 30.1in /  1020.6hPa SE 6.9mph /  11.1km/h 12mph /  19.3km/h 43% 0in /  0.0mm
17:49 73.8 °F /  23.2 °C 50 °F /  10 °C 30.1in /  1020.6hPa SE 6.4mph /  10.3km/h 12mph /  19.3km/h 43.1% 0in /  0.0mm
17:54 73.8 °F /  23.2 °C 50.5 °F /  10.3 °C 30.1in /  1020.6hPa SE 6.4mph /  10.3km/h 10mph /  16.1km/h 44% 0in /  0.0mm
17:59 74.1 °F /  23.4 °C 51.1 °F /  10.6 °C 30.1in /  1020.5hPa SE 5.3mph /  8.5km/h 9.2mph /  14.8km/h 44.5% 0in /  0.0mm
18:04 73.8 °F /  23.2 °C 51.4 °F /  10.8 °C 30.1in /  1020.5hPa SSE 5.2mph /  8.4km/h 14mph /  22.5km/h 45.5% 0in /  0.0mm
18:09 73.2 °F /  22.9 °C 51.8 °F /  11 °C 30.1in /  1020.5hPa SSE 7.3mph /  11.7km/h 14mph /  22.5km/h 46.9% 0in /  0.0mm
18:14 73 °F /  22.8 °C 52 °F /  11.1 °C 30.1in /  1020.4hPa SSE 7.4mph /  11.9km/h 13.7mph /  22km/h 47.5% 0in /  0.0mm
18:19 72.9 °F /  22.7 °C 52.5 °F /  11.4 °C 30.1in /  1020.4hPa SE 8.5mph /  13.7km/h 14mph /  22.5km/h 49.1% 0in /  0.0mm
18:24 72.7 °F /  22.6 °C 53.1 °F /  11.7 °C 30.1in /  1020.4hPa SSE 8.5mph /  13.7km/h 14mph /  22.5km/h 50.1% 0in /  0.0mm
18:29 72.5 °F /  22.5 °C 53.2 °F /  11.8 °C 30.1in /  1020.3hPa SE 8.1mph /  13.1km/h 13mph /  20.9km/h 51% 0in /  0.0mm
18:34 72.3 °F /  22.4 °C 53.4 °F /  11.9 °C 30.1in /  1020.3hPa SE 8.1mph /  13km/h 12.5mph /  20.1km/h 51.4% 0in /  0.0mm
18:39 72.1 °F /  22.3 °C 54.1 °F /  12.3 °C 30.1in /  1020.5hPa SE 6.5mph /  10.5km/h 13mph /  20.9km/h 53% 0in /  0.0mm
18:44 71.8 °F /  22.1 °C 54.3 °F /  12.4 °C 30.1in /  1020.5hPa SE 6.4mph /  10.3km/h 13mph /  20.9km/h 54.3% 0in /  0.0mm
18:49 71.4 °F /  21.9 °C 54.5 °F /  12.5 °C 30.1in /  1020.5hPa SSE 6.4mph /  10.3km/h 12.5mph /  20.1km/h 55% 0in /  0.0mm
18:50 71.2 °F /  21.8 °C 54.3 °F /  12.4 °C 30.1in /  1020.5hPa SE 6.5mph /  10.5km/h 13mph /  20.9km/h 55% 0in /  0.0mm
18:59 71.1 °F /  21.7 °C 54.7 °F /  12.6 °C 30.1in /  1020.5hPa SSE 7.3mph /  11.8km/h 13mph /  20.9km/h 56.2% 0in /  0.0mm
19:04 70.7 °F /  21.5 °C 54.7 °F /  12.6 °C 30.1in /  1020.5hPa SE 7.4mph /  11.9km/h 13mph /  20.9km/h 57.1% 0in /  0.0mm
19:09 70.3 °F /  21.3 °C 54.9 °F /  12.7 °C 30.1in /  1020.5hPa SSE 7.6mph /  12.2km/h 13mph /  20.9km/h 58% 0in /  0.0mm
19:14 70.2 °F /  21.2 °C 55 °F /  12.8 °C 30.1in /  1020.5hPa SSE 7.6mph /  12.2km/h 12mph /  19.3km/h 58.8% 0in /  0.0mm
19:19 69.8 °F /  21 °C 55 °F /  12.8 °C 30.1in /  1020.5hPa SE 6.4mph /  10.3km/h 12mph /  19.3km/h 59.4% 0in /  0.0mm
19:24 69.4 °F /  20.8 °C 55 °F /  12.8 °C 30.1in /  1020.5hPa SSE 6.4mph /  10.3km/h 12.7mph /  20.4km/h 60% 0in /  0.0mm
19:29 69.3 °F /  20.7 °C 54.9 °F /  12.7 °C 30.1in /  1020.4hPa SSE 7.4mph /  11.9km/h 13mph /  20.9km/h 60% 0in /  0.0mm
19:34 69.1 °F /  20.6 °C 54.1 °F /  12.3 °C 30.1in /  1020.4hPa SSE 7.4mph /  11.9km/h 12mph /  19.3km/h 59% 0in /  0.0mm
19:39 68.9 °F /  20.5 °C 53.8 °F /  12.1 °C 30.1in /  1020.5hPa SE 7.4mph /  11.9km/h 12mph /  19.3km/h 58.7% 0in /  0.0mm
19:44 68.7 °F /  20.4 °C 53.2 °F /  11.8 °C 30.1in /  1020.5hPa SSE 7.4mph /  11.9km/h 10mph /  16.1km/h 58% 0in /  0.0mm
19:49 68.5 °F /  20.3 °C 53.1 °F /  11.7 °C 30.1in /  1020.5hPa SE 6mph /  9.7km/h 9.7mph /  15.6km/h 57.7% 0in /  0.0mm
19:54 68.5 °F /  20.3 °C 52.7 °F /  11.5 °C 30.1in /  1020.6hPa SE 5.9mph /  9.5km/h 10mph /  16.1km/h 57% 0in /  0.0mm
19:59 68.4 °F /  20.2 °C 52.2 °F /  11.2 °C 30.1in /  1020.6hPa SE 5.4mph /  8.7km/h 9.7mph /  15.6km/h 56.3% 0in /  0.0mm
20:04 68.4 °F /  20.2 °C 51.8 °F /  11 °C 30.1in /  1020.6hPa SSE 5.4mph /  8.7km/h 11.4mph /  18.3km/h 55.6% 0in /  0.0mm
20:09 68.4 °F /  20.2 °C 51.4 °F /  10.8 °C 30.1in /  1020.7hPa SSE 6.3mph /  10.2km/h 12mph /  19.3km/h 55% 0in /  0.0mm
20:14 68.2 °F /  20.1 °C 51.4 °F /  10.8 °C 30.1in /  1020.7hPa SSE 6.4mph /  10.3km/h 10mph /  16.1km/h 55% 0in /  0.0mm
20:19 68.2 °F /  20.1 °C 51.3 °F /  10.7 °C 30.1in /  1020.7hPa SE 5.4mph /  8.7km/h 7.4mph /  11.9km/h 55% 0in /  0.0mm
20:24 68 °F /  20 °C 51.3 °F /  10.7 °C 30.1in /  1020.7hPa SE 5.4mph /  8.7km/h 8.1mph /  13km/h 55% 0in /  0.0mm
20:29 68 °F /  20 °C 51.1 °F /  10.6 °C 30.1in /  1020.7hPa ESE 4.3mph /  7km/h 8mph /  12.9km/h 55% 0in /  0.0mm
20:34 67.8 °F /  19.9 °C 51.3 °F /  10.7 °C 30.1in /  1020.7hPa ESE 4.3mph /  6.9km/h 5mph /  8km/h 55.6% 0in /  0.0mm
20:39 67.6 °F /  19.8 °C 51.6 °F /  10.9 °C 30.1in /  1020.8hPa ESE 2.9mph /  4.7km/h 5.8mph /  9.3km/h 56.6% 0in /  0.0mm
20:44 67.5 °F /  19.7 °C 51.8 °F /  11 °C 30.1in /  1020.8hPa ESE 2.9mph /  4.7km/h 6mph /  9.7km/h 57.5% 0in /  0.0mm
20:49 67.1 °F /  19.5 °C 51.8 °F /  11 °C 30.1in /  1020.8hPa ESE 2.9mph /  4.7km/h 5.2mph /  8.4km/h 58% 0in /  0.0mm
20:54 66.9 °F /  19.4 °C 51.6 °F /  10.9 °C 30.1in /  1020.8hPa ESE 2.9mph /  4.7km/h 5mph /  8km/h 57.9% 0in /  0.0mm
20:59 66.7 °F /  19.3 °C 51.1 °F /  10.6 °C 30.1in /  1020.8hPa ESE 2.4mph /  3.9km/h 5mph /  8km/h 57.2% 0in /  0.0mm
21:04 66.7 °F /  19.3 °C 51.3 °F /  10.7 °C 30.1in /  1020.8hPa ESE 2.4mph /  3.9km/h 2mph /  3.2km/h 57.7% 0in /  0.0mm
21:09 66.6 °F /  19.2 °C 51.1 °F /  10.6 °C 30.2in /  1020.9hPa Calm   1.8mph /  2.9km/h 57.4% 0in /  0.0mm
21:14 66.6 °F /  19.2 °C 50.5 °F /  10.3 °C 30.2in /  1020.9hPa Calm   4.7mph /  7.6km/h 56.6% 0in /  0.0mm
21:19 66.4 °F /  19.1 °C 50.4 °F /  10.2 °C 30.2in /  1020.9hPa SO 1.4mph /  2.2km/h 5mph /  8km/h 56.4% 0in /  0.0mm
21:24 66.4 °F /  19.1 °C 50.7 °F /  10.4 °C 30.2in /  1021.0hPa Oeste 1.4mph /  2.2km/h 5mph /  8km/h 57.2% 0in /  0.0mm
21:29 66 °F /  18.9 °C 51.1 °F /  10.6 °C 30.2in /  1021.0hPa Oeste 2mph /  3.2km/h 5mph /  8km/h 58.3% 0in /  0.0mm
21:34 65.8 °F /  18.8 °C 51.1 °F /  10.6 °C 30.2in /  1021.0hPa Oeste 2mph /  3.2km/h 3.5mph /  5.6km/h 59.1% 0in /  0.0mm
21:39 65.7 °F /  18.7 °C 51.3 °F /  10.7 °C 30.2in /  1021.0hPa Oeste 2mph /  3.2km/h 4mph /  6.4km/h 60% 0in /  0.0mm
21:44 65.3 °F /  18.5 °C 51.4 °F /  10.8 °C 30.2in /  1021.0hPa Oeste 2mph /  3.2km/h 4mph /  6.4km/h 61% 0in /  0.0mm
21:49 64.9 °F /  18.3 °C 51.3 °F /  10.7 °C 30.2in /  1021.0hPa Oeste 1.8mph /  2.9km/h 3mph /  4.8km/h 61% 0in /  0.0mm
21:54 64.9 °F /  18.3 °C 51.4 °F /  10.8 °C 30.2in /  1021.1hPa ONO 1.8mph /  2.9km/h 3.6mph /  5.8km/h 61.9% 0in /  0.0mm
21:59 64.8 °F /  18.2 °C 51.4 °F /  10.8 °C 30.2in /  1021.1hPa NO 1.8mph /  2.9km/h 4.6mph /  7.4km/h 62% 0in /  0.0mm
22:04 64.6 °F /  18.1 °C 51.3 °F /  10.7 °C 30.2in /  1021.1hPa NO 1.8mph /  2.9km/h 5mph /  8km/h 62% 0in /  0.0mm
22:09 64.4 °F /  18 °C 51.3 °F /  10.7 °C 30.2in /  1021.1hPa NO 2.4mph /  3.9km/h 5mph /  8km/h 62.4% 0in /  0.0mm
22:14 64 °F /  17.8 °C 51.1 °F /  10.6 °C 30.2in /  1021.1hPa ONO 2.4mph /  3.9km/h 5mph /  8km/h 62.5% 0in /  0.0mm
22:19 64 °F /  17.8 °C 50.7 °F /  10.4 °C 30.2in /  1021.1hPa Oeste 2.9mph /  4.6km/h 5mph /  8km/h 62% 0in /  0.0mm
22:24 64 °F /  17.8 °C 50.7 °F /  10.4 °C 30.2in /  1021.3hPa Oeste 2.9mph /  4.7km/h 4.7mph /  7.6km/h 62% 0in /  0.0mm
22:29 64 °F /  17.8 °C 50.5 °F /  10.3 °C 30.2in /  1021.3hPa OSO 2mph /  3.2km/h 5.8mph /  9.3km/h 61.4% 0in /  0.0mm
22:34 64.2 °F /  17.9 °C 50.4 °F /  10.2 °C 30.2in /  1021.3hPa SSO 2mph /  3.2km/h 6mph /  9.7km/h 60.7% 0in /  0.0mm
22:39 64.2 °F /  17.9 °C 50.5 °F /  10.3 °C 30.2in /  1021.3hPa Sur 2.9mph /  4.6km/h 5.2mph /  8.4km/h 60.7% 0in /  0.0mm
22:44 64.6 °F /  18.1 °C 50.7 °F /  10.4 °C 30.2in /  1021.2hPa SSE 2.9mph /  4.7km/h 5.9mph /  9.5km/h 61% 0in /  0.0mm
22:49 64.6 °F /  18.1 °C 50.5 °F /  10.3 °C 30.2in /  1021.2hPa Sur 3.1mph /  5km/h 6.9mph /  11.1km/h 60.3% 0in /  0.0mm
22:54 64.8 °F /  18.2 °C 50.2 °F /  10.1 °C 30.2in /  1021.3hPa Sur 3.1mph /  5km/h 7mph /  11.3km/h 59.1% 0in /  0.0mm
22:59 64.9 °F /  18.3 °C 50.4 °F /  10.2 °C 30.2in /  1021.3hPa Sur 4mph /  6.4km/h 6mph /  9.7km/h 59% 0in /  0.0mm
23:04 64.9 °F /  18.3 °C 50.4 °F /  10.2 °C 30.2in /  1021.3hPa Sur 4mph /  6.5km/h 5mph /  8km/h 59% 0in /  0.0mm
23:09 64.9 °F /  18.3 °C 50.4 °F /  10.2 °C 30.2in /  1021.3hPa Sur 2.5mph /  4km/h 4mph /  6.4km/h 59% 0in /  0.0mm
23:14 64.9 °F /  18.3 °C 50.2 °F /  10.1 °C 30.2in /  1021.3hPa Sur 2.4mph /  3.9km/h 3.5mph /  5.6km/h 59% 0in /  0.0mm
23:19 64.8 °F /  18.2 °C 50.2 °F /  10.1 °C 30.2in /  1021.3hPa Sur 2mph /  3.2km/h 3mph /  4.8km/h 59% 0in /  0.0mm
23:24 64.6 °F /  18.1 °C 50.2 °F /  10.1 °C 30.2in /  1021.3hPa Sur 2mph /  3.2km/h 3mph /  4.8km/h 59.6% 0in /  0.0mm
23:29 64.4 °F /  18 °C 50.2 °F /  10.1 °C 30.2in /  1021.3hPa Sur 0.1mph /  0.1km/h 3.6mph /  5.8km/h 60% 0in /  0.0mm
23:34 64 °F /  17.8 °C 50 °F /  10 °C 30.2in /  1021.3hPa Calm   4mph /  6.4km/h 60% 0in /  0.0mm
23:39 63.9 °F /  17.7 °C 50.2 °F /  10.1 °C 30.2in /  1021.3hPa Calm   4.6mph /  7.4km/h 60.9% 0in /  0.0mm
23:44 63.9 °F /  17.7 °C 50 °F /  10 °C 30.2in /  1021.2hPa Calm   4.7mph /  7.6km/h 61% 0in /  0.0mm
23:49 63.5 °F /  17.5 °C 50.2 °F /  10.1 °C 30.2in /  1021.2hPa ESE 2.3mph /  3.7km/h 5.9mph /  9.5km/h 62% 0in /  0.0mm
23:54 63 °F /  17.2 °C 50.2 °F /  10.1 °C 30.2in /  1021.2hPa ESE 2.4mph /  3.9km/h 6mph /  9.7km/h 62.8% 0in /  0.0mm
23:59 62.6 °F /  17 °C 50.2 °F /  10.1 °C 30.2in /  1021.2hPa SE 2.9mph /  4.7km/h 5mph /  8km/h 63.8% 0in /  0.0mm
Murcia-Puente Tocinos, España
Compliments of Weather Underground - 3 mb

La estación de MeteoMurcia.com, publica sus datos en los siguientes proyectos:

Weather Underground PWS IMURCIAP2 Meteoclimatic www.awekas.at

W3Counter
Web Analytics